Saint-Chrysostome, Canada
Current Conditions -  °F | °C
As of 2:32 AM on Thursday 18 Dec 2014 (Local Time) from CYUL Reporting Station
Light Snow Light Snow  
Wind Chill: 27°   Ceiling: 1400
Heat Index: 32°   Visibility: 2.5mi
Dew Point: 30°   Wind: 5mph
Humidity: 93%   Direction: 300°WNW
Pressure: 29.78"   Gusts: NA
Location:  45.1°N, 73.75°W
Report Text: CYUL 180732Z 30004KT 2 1/2SM -SN BR FEW005 BKN014 OVC033 M00/M01 A2978 RMK SF1SF5SC2 SLP087
Loading
Personal Weather Stations






























Interactive Weather Map New forecast layout! Learn more

10-Day Weather Forecast

Advertisements
Track Severe Weather on mobile